sensor_id;sensor_type;location;lat;lon;timestamp;pressure;altitude;pressure_sealevel;temperature;humidity
27144;BME280;14672;50.250;8.312;2023-03-19T00:00:12;98490.34;;;13.16;63.84
27144;BME280;14672;50.250;8.312;2023-03-19T00:02:38;98487.16;;;13.14;63.75
27144;BME280;14672;50.250;8.312;2023-03-19T00:05:04;98497.13;;;13.19;63.70
27144;BME280;14672;50.250;8.312;2023-03-19T00:07:30;98496.31;;;13.18;63.90
27144;BME280;14672;50.250;8.312;2023-03-19T00:09:56;98490.44;;;13.22;63.54
27144;BME280;14672;50.250;8.312;2023-03-19T00:12:22;98494.28;;;13.19;63.97
27144;BME280;14672;50.250;8.312;2023-03-19T00:14:48;98496.03;;;13.16;63.95
27144;BME280;14672;50.250;8.312;2023-03-19T00:17:14;98503.94;;;13.22;63.96
27144;BME280;14672;50.250;8.312;2023-03-19T00:19:40;98494.88;;;13.23;63.63
27144;BME280;14672;50.250;8.312;2023-03-19T00:22:06;98495.66;;;13.24;63.68
27144;BME280;14672;50.250;8.312;2023-03-19T00:24:33;98494.06;;;13.23;63.79
27144;BME280;14672;50.250;8.312;2023-03-19T00:26:59;98485.16;;;13.30;63.69
27144;BME280;14672;50.250;8.312;2023-03-19T00:29:24;98491.53;;;13.25;63.80
27144;BME280;14672;50.250;8.312;2023-03-19T00:31:50;98491.53;;;13.25;63.72
27144;BME280;14672;50.250;8.312;2023-03-19T00:34:16;98484.06;;;13.27;63.68
27144;BME280;14672;50.250;8.312;2023-03-19T00:36:45;98486.72;;;13.31;63.60
27144;BME280;14672;50.250;8.312;2023-03-19T00:39:11;98497.47;;;13.36;63.19
27144;BME280;14672;50.250;8.312;2023-03-19T00:41:37;98484.78;;;13.37;63.17
27144;BME280;14672;50.250;8.312;2023-03-19T00:44:03;98488.91;;;13.36;63.42
27144;BME280;14672;50.250;8.312;2023-03-19T00:46:30;98494.16;;;13.37;63.44
27144;BME280;14672;50.250;8.312;2023-03-19T00:48:56;98497.28;;;13.39;63.22
27144;BME280;14672;50.250;8.312;2023-03-19T00:51:23;98496.03;;;13.40;63.07
27144;BME280;14672;50.250;8.312;2023-03-19T00:53:51;98491.59;;;13.39;63.31
27144;BME280;14672;50.250;8.312;2023-03-19T00:56:17;98490.91;;;13.44;63.23
27144;BME280;14672;50.250;8.312;2023-03-19T00:58:44;98500.56;;;13.47;63.12
27144;BME280;14672;50.250;8.312;2023-03-19T01:01:12;98492.97;;;13.44;63.45
27144;BME280;14672;50.250;8.312;2023-03-19T01:03:40;98492.97;;;13.44;63.30
27144;BME280;14672;50.250;8.312;2023-03-19T01:06:06;98501.06;;;13.45;63.29
27144;BME280;14672;50.250;8.312;2023-03-19T01:08:32;98494.44;;;13.39;63.71
27144;BME280;14672;50.250;8.312;2023-03-19T01:11:14;98487.47;;;13.40;63.67
27144;BME280;14672;50.250;8.312;2023-03-19T01:13:42;98492.84;;;13.38;63.62
27144;BME280;14672;50.250;8.312;2023-03-19T01:16:09;98490.59;;;13.42;63.89
27144;BME280;14672;50.250;8.312;2023-03-19T01:18:35;98489.53;;;13.40;63.91
27144;BME280;14672;50.250;8.312;2023-03-19T01:21:01;98492.38;;;13.40;63.62
27144;BME280;14672;50.250;8.312;2023-03-19T01:23:28;98487.75;;;13.42;63.55
27144;BME280;14672;50.250;8.312;2023-03-19T01:25:54;98482.84;;;13.43;63.53
27144;BME280;14672;50.250;8.312;2023-03-19T01:28:22;98486.66;;;13.40;63.64
27144;BME280;14672;50.250;8.312;2023-03-19T01:30:48;98492.97;;;13.44;63.70
27144;BME280;14672;50.250;8.312;2023-03-19T01:33:14;98491.41;;;13.43;63.39
27144;BME280;14672;50.250;8.312;2023-03-19T01:35:39;98484.59;;;13.40;63.61
27144;BME280;14672;50.250;8.312;2023-03-19T01:38:05;98479.97;;;13.43;63.39
27144;BME280;14672;50.250;8.312;2023-03-19T01:40:32;98492.19;;;13.43;63.56
27144;BME280;14672;50.250;8.312;2023-03-19T01:43:19;98484.09;;;13.42;64.09
27144;BME280;14672;50.250;8.312;2023-03-19T01:45:48;98488.84;;;13.45;63.52
27144;BME280;14672;50.250;8.312;2023-03-19T01:50:47;98483.75;;;13.49;63.25
27144;BME280;14672;50.250;8.312;2023-03-19T01:53:22;98477.44;;;13.45;63.43
27144;BME280;14672;50.250;8.312;2023-03-19T01:55:49;98487.28;;;13.44;63.35
27144;BME280;14672;50.250;8.312;2023-03-19T01:58:16;98477.13;;;13.43;63.49
27144;BME280;14672;50.250;8.312;2023-03-19T02:00:42;98480.28;;;13.45;63.15
27144;BME280;14672;50.250;8.312;2023-03-19T02:03:08;98476.47;;;13.48;63.07
27144;BME280;14672;50.250;8.312;2023-03-19T02:05:36;98476.16;;;13.46;63.23
27144;BME280;14672;50.250;8.312;2023-03-19T02:08:06;98479.97;;;13.43;63.34
27144;BME280;14672;50.250;8.312;2023-03-19T02:10:33;98484.41;;;13.44;63.33
27144;BME280;14672;50.250;8.312;2023-03-19T02:12:59;98483.50;;;13.38;63.74
27144;BME280;14672;50.250;8.312;2023-03-19T02:15:25;98495.84;;;13.44;63.36
27144;BME280;14672;50.250;8.312;2023-03-19T02:17:51;98494.75;;;13.41;63.50
27144;BME280;14672;50.250;8.312;2023-03-19T02:20:47;98494.75;;;13.41;63.46
27144;BME280;14672;50.250;8.312;2023-03-19T02:23:16;98495.41;;;13.36;63.59
27144;BME280;14672;50.250;8.312;2023-03-19T02:28:17;98504.88;;;13.42;63.45
27144;BME280;14672;50.250;8.312;2023-03-19T02:30:44;98490.00;;;13.38;63.82
27144;BME280;14672;50.250;8.312;2023-03-19T02:33:17;98492.38;;;13.40;63.90
27144;BME280;14672;50.250;8.312;2023-03-19T02:35:45;98493.59;;;13.48;63.57
27144;BME280;14672;50.250;8.312;2023-03-19T02:38:13;98495.53;;;13.42;63.87
27144;BME280;14672;50.250;8.312;2023-03-19T02:40:59;98498.38;;;13.42;64.20
27144;BME280;14672;50.250;8.312;2023-03-19T02:43:26;98499.97;;;13.43;63.82
27144;BME280;14672;50.250;8.312;2023-03-19T02:45:52;98498.75;;;13.35;63.81
27144;BME280;14672;50.250;8.312;2023-03-19T02:48:18;98494.75;;;13.41;63.66
27144;BME280;14672;50.250;8.312;2023-03-19T02:50:44;98488.91;;;13.36;63.76
27144;BME280;14672;50.250;8.312;2023-03-19T02:53:10;98485.28;;;13.35;63.61
27144;BME280;14672;50.250;8.312;2023-03-19T02:55:36;98486.66;;;13.40;63.53
27144;BME280;14672;50.250;8.312;2023-03-19T02:58:02;98494.91;;;13.38;63.45
27144;BME280;14672;50.250;8.312;2023-03-19T03:00:28;98489.72;;;13.36;63.34
27144;BME280;14672;50.250;8.312;2023-03-19T03:02:56;98498.03;;;13.49;62.71
27144;BME280;14672;50.250;8.312;2023-03-19T03:05:22;98500.94;;;13.40;62.93
27144;BME280;14672;50.250;8.312;2023-03-19T03:07:48;98492.56;;;13.36;63.51
27144;BME280;14672;50.250;8.312;2023-03-19T03:10:15;98496.50;;;13.39;63.40
27144;BME280;14672;50.250;8.312;2023-03-19T03:12:41;98501.41;;;13.38;63.21
27144;BME280;14672;50.250;8.312;2023-03-19T03:15:08;98512.22;;;13.34;63.20
27144;BME280;14672;50.250;8.312;2023-03-19T03:17:39;98509.88;;;13.33;63.60
27144;BME280;14672;50.250;8.312;2023-03-19T03:20:07;98507.63;;;13.37;63.07
27144;BME280;14672;50.250;8.312;2023-03-19T03:22:34;98503.19;;;13.36;63.00
27144;BME280;14672;50.250;8.312;2023-03-19T03:25:00;98507.63;;;13.37;62.88
27144;BME280;14672;50.250;8.312;2023-03-19T03:27:25;98495.53;;;13.42;62.83
27144;BME280;14672;50.250;8.312;2023-03-19T03:29:51;98506.94;;;13.42;62.66
27144;BME280;14672;50.250;8.312;2023-03-19T03:32:17;98500.34;;;13.36;62.76
27144;BME280;14672;50.250;8.312;2023-03-19T03:34:43;98501.59;;;13.35;62.85
27144;BME280;14672;50.250;8.312;2023-03-19T03:37:11;98498.13;;;13.31;62.87
27144;BME280;14672;50.250;8.312;2023-03-19T03:39:37;98509.88;;;13.33;62.84
27144;BME280;14672;50.250;8.312;2023-03-19T03:42:03;98502.09;;;13.33;62.76
27144;BME280;14672;50.250;8.312;2023-03-19T03:44:29;98509.28;;;13.29;63.09
27144;BME280;14672;50.250;8.312;2023-03-19T03:46:55;98513.09;;;13.26;63.40
27144;BME280;14672;50.250;8.312;2023-03-19T03:49:21;98506.09;;;13.27;63.23
27144;BME280;14672;50.250;8.312;2023-03-19T03:51:47;98505.50;;;13.23;63.23
27144;BME280;14672;50.250;8.312;2023-03-19T03:54:13;98507.53;;;13.22;63.39
27144;BME280;14672;50.250;8.312;2023-03-19T03:56:39;98513.84;;;13.26;63.45
27144;BME280;14672;50.250;8.312;2023-03-19T03:59:06;98512.78;;;13.24;63.28
27144;BME280;14672;50.250;8.312;2023-03-19T04:01:32;98515.81;;;13.20;63.26
27144;BME280;14672;50.250;8.312;2023-03-19T04:03:58;98516.78;;;13.17;63.33
27144;BME280;14672;50.250;8.312;2023-03-19T04:06:25;98515.69;;;13.14;63.38
27144;BME280;14672;50.250;8.312;2023-03-19T04:08:52;98525.03;;;13.15;63.66
27144;BME280;14672;50.250;8.312;2023-03-19T04:11:18;98526.44;;;13.20;63.31
27144;BME280;14672;50.250;8.312;2023-03-19T04:13:44;98523.59;;;13.20;63.52
27144;BME280;14672;50.250;8.312;2023-03-19T04:16:10;98527.59;;;13.13;63.57
27144;BME280;14672;50.250;8.312;2023-03-19T04:18:37;98530.75;;;13.15;63.53
27144;BME280;14672;50.250;8.312;2023-03-19T04:21:06;98532.63;;;13.18;63.33
27144;BME280;14672;50.250;8.312;2023-03-19T04:23:33;98537.41;;;13.12;63.75
27144;BME280;14672;50.250;8.312;2023-03-19T04:26:01;98528.53;;;13.10;63.31
27144;BME280;14672;50.250;8.312;2023-03-19T04:28:28;98529.50;;;13.07;63.50
27144;BME280;14672;50.250;8.312;2023-03-19T04:31:02;98540.59;;;13.05;63.61
27144;BME280;14672;50.250;8.312;2023-03-19T04:33:29;98528.09;;;13.02;63.81
27144;BME280;14672;50.250;8.312;2023-03-19T04:35:56;98532.22;;;13.01;63.76
27144;BME280;14672;50.250;8.312;2023-03-19T04:38:23;98538.59;;;12.96;63.54
27144;BME280;14672;50.250;8.312;2023-03-19T04:40:51;98533.97;;;12.99;63.48
27144;BME280;14672;50.250;8.312;2023-03-19T04:43:17;98531.94;;;12.90;63.35
27144;BME280;14672;50.250;8.312;2023-03-19T04:45:43;98545.44;;;12.90;63.32
27144;BME280;14672;50.250;8.312;2023-03-19T04:48:09;98537.34;;;12.88;63.54
27144;BME280;14672;50.250;8.312;2023-03-19T04:50:36;98538.84;;;12.75;63.83
27144;BME280;14672;50.250;8.312;2023-03-19T04:53:02;98535.97;;;12.75;63.28
27144;BME280;14672;50.250;8.312;2023-03-19T04:55:27;98535.72;;;12.63;63.60
27144;BME280;14672;50.250;8.312;2023-03-19T04:57:53;98545.25;;;12.60;63.37
27144;BME280;14672;50.250;8.312;2023-03-19T05:00:19;98548.25;;;12.57;63.21
27144;BME280;14672;50.250;8.312;2023-03-19T05:02:45;98547.31;;;12.51;63.45
27144;BME280;14672;50.250;8.312;2023-03-19T05:05:12;98543.84;;;12.47;63.25
27144;BME280;14672;50.250;8.312;2023-03-19T05:07:40;98557.81;;;12.36;63.45
27144;BME280;14672;50.250;8.312;2023-03-19T05:10:07;98550.69;;;12.31;63.04
27144;BME280;14672;50.250;8.312;2023-03-19T05:12:33;98563.53;;;12.27;62.81
27144;BME280;14672;50.250;8.312;2023-03-19T05:14:59;98562.28;;;12.18;62.46
27144;BME280;14672;50.250;8.312;2023-03-19T05:17:26;98560.56;;;12.12;62.93
27144;BME280;14672;50.250;8.312;2023-03-19T05:19:52;98563.88;;;12.10;63.31
27144;BME280;14672;50.250;8.312;2023-03-19T05:22:18;98562.59;;;12.02;63.19
27144;BME280;14672;50.250;8.312;2023-03-19T05:24:45;98565.16;;;12.00;63.00
27144;BME280;14672;50.250;8.312;2023-03-19T05:27:11;98566.75;;;12.01;63.12
27144;BME280;14672;50.250;8.312;2023-03-19T05:29:37;98573.22;;;11.93;62.71
27144;BME280;14672;50.250;8.312;2023-03-19T05:32:04;98573.22;;;11.93;62.43
27144;BME280;14672;50.250;8.312;2023-03-19T05:34:30;98581.63;;;11.78;62.22
27144;BME280;14672;50.250;8.312;2023-03-19T05:36:56;98574.00;;;11.66;62.55
27144;BME280;14672;50.250;8.312;2023-03-19T05:39:22;98572.56;;;11.61;62.39
27144;BME280;14672;50.250;8.312;2023-03-19T05:41:49;98566.25;;;11.57;62.34
27144;BME280;14672;50.250;8.312;2023-03-19T05:44:15;98571.16;;;11.57;62.54
27144;BME280;14672;50.250;8.312;2023-03-19T05:46:41;98574.94;;;11.54;62.78
27144;BME280;14672;50.250;8.312;2023-03-19T05:49:07;98573.03;;;11.51;62.50
27144;BME280;14672;50.250;8.312;2023-03-19T05:51:34;98585.19;;;11.51;62.88
27144;BME280;14672;50.250;8.312;2023-03-19T05:54:01;98586.94;;;11.49;63.25
27144;BME280;14672;50.250;8.312;2023-03-19T05:56:27;98586.31;;;11.54;63.75
27144;BME280;14672;50.250;8.312;2023-03-19T05:58:53;98589.47;;;11.56;64.23
27144;BME280;14672;50.250;8.312;2023-03-19T06:01:19;98591.38;;;11.59;64.27
27144;BME280;14672;50.250;8.312;2023-03-19T06:03:45;98594.53;;;11.61;64.41
27144;BME280;14672;50.250;8.312;2023-03-19T06:06:11;98596.75;;;11.66;64.85
27144;BME280;14672;50.250;8.312;2023-03-19T06:08:36;98597.22;;;11.64;64.80
27144;BME280;14672;50.250;8.312;2023-03-19T06:11:02;98595.97;;;11.65;64.64
27144;BME280;14672;50.250;8.312;2023-03-19T06:13:29;98608.00;;;11.69;64.88
27144;BME280;14672;50.250;8.312;2023-03-19T06:15:55;98607.34;;;11.65;65.21
27144;BME280;14672;50.250;8.312;2023-03-19T06:18:21;98607.88;;;11.73;65.26
27144;BME280;14672;50.250;8.312;2023-03-19T06:20:47;98609.13;;;11.81;65.00
27144;BME280;14672;50.250;8.312;2023-03-19T06:23:13;98607.56;;;11.89;65.15
27144;BME280;14672;50.250;8.312;2023-03-19T06:25:39;98610.72;;;12.00;65.05
27144;BME280;14672;50.250;8.312;2023-03-19T06:28:06;98606.13;;;12.12;64.76
27144;BME280;14672;50.250;8.312;2023-03-19T06:30:32;98608.34;;;12.17;64.73
27144;BME280;14672;50.250;8.312;2023-03-19T06:32:59;98609.44;;;12.10;65.27
27144;BME280;14672;50.250;8.312;2023-03-19T06:35:25;98612.78;;;12.09;65.65
27144;BME280;14672;50.250;8.312;2023-03-19T06:37:51;98600.41;;;12.12;65.19
27144;BME280;14672;50.250;8.312;2023-03-19T06:40:18;98609.59;;;12.16;64.75
27144;BME280;14672;50.250;8.312;2023-03-19T06:42:45;98597.56;;;12.21;64.62
27144;BME280;14672;50.250;8.312;2023-03-19T06:45:13;98598.66;;;12.23;64.50
27144;BME280;14672;50.250;8.312;2023-03-19T06:47:42;98604.84;;;12.22;64.48
27144;BME280;14672;50.250;8.312;2023-03-19T06:50:10;98608.78;;;12.24;64.43
27144;BME280;14672;50.250;8.312;2023-03-19T06:52:37;98615.25;;;12.34;64.27
27144;BME280;14672;50.250;8.312;2023-03-19T06:55:03;98624.13;;;12.45;64.51
27144;BME280;14672;50.250;8.312;2023-03-19T06:57:30;98626.00;;;12.57;64.43
27144;BME280;14672;50.250;8.312;2023-03-19T06:59:55;98628.63;;;12.70;64.10
27144;BME280;14672;50.250;8.312;2023-03-19T07:02:21;98634.03;;;12.77;63.89
27144;BME280;14672;50.250;8.312;2023-03-19T07:04:47;98626.38;;;12.83;63.83
27144;BME280;14672;50.250;8.312;2023-03-19T07:07:13;98624.50;;;12.80;64.04
27144;BME280;14672;50.250;8.312;2023-03-19T07:09:39;98630.19;;;12.89;63.57
27144;BME280;14672;50.250;8.312;2023-03-19T07:12:05;98637.78;;;12.83;64.05
27144;BME280;14672;50.250;8.312;2023-03-19T07:14:31;98645.97;;;12.99;63.46
27144;BME280;14672;50.250;8.312;2023-03-19T07:16:57;98643.41;;;13.10;63.05
27144;BME280;14672;50.250;8.312;2023-03-19T07:19:22;98640.88;;;13.12;63.05
27144;BME280;14672;50.250;8.312;2023-03-19T07:21:48;98639.88;;;13.25;62.71
27144;BME280;14672;50.250;8.312;2023-03-19T07:24:14;98651.59;;;13.27;62.83
27144;BME280;14672;50.250;8.312;2023-03-19T07:26:40;98657.44;;;13.32;62.84
27144;BME280;14672;50.250;8.312;2023-03-19T07:29:07;98655.03;;;13.40;62.90
27144;BME280;14672;50.250;8.312;2023-03-19T07:31:33;98663.41;;;13.43;62.64
27144;BME280;14672;50.250;8.312;2023-03-19T07:33:59;98666.81;;;13.56;62.49
27144;BME280;14672;50.250;8.312;2023-03-19T07:36:24;98660.44;;;13.61;62.18
27144;BME280;14672;50.250;8.312;2023-03-19T07:38:51;98669.78;;;13.62;62.08
27144;BME280;14672;50.250;8.312;2023-03-19T07:41:16;98669.13;;;13.67;62.00
27144;BME280;14672;50.250;8.312;2023-03-19T07:43:42;98662.75;;;13.72;61.94
27144;BME280;14672;50.250;8.312;2023-03-19T07:46:08;98663.97;;;13.80;61.42
27144;BME280;14672;50.250;8.312;2023-03-19T07:48:34;98654.16;;;13.81;61.46
27144;BME280;14672;50.250;8.312;2023-03-19T07:51:00;98652.94;;;13.73;61.39
27144;BME280;14672;50.250;8.312;2023-03-19T07:53:26;98654.56;;;13.89;60.95
27144;BME280;14672;50.250;8.312;2023-03-19T07:55:52;98647.88;;;13.92;60.97
27144;BME280;14672;50.250;8.312;2023-03-19T07:58:18;98662.44;;;13.94;61.09
27144;BME280;14672;50.250;8.312;2023-03-19T08:00:43;98665.06;;;14.06;60.63
27144;BME280;14672;50.250;8.312;2023-03-19T08:03:09;98665.84;;;14.07;60.79
27144;BME280;14672;50.250;8.312;2023-03-19T08:05:36;98657.41;;;14.13;60.89
27144;BME280;14672;50.250;8.312;2023-03-19T08:08:02;98664.50;;;14.17;60.74
27144;BME280;14672;50.250;8.312;2023-03-19T08:10:28;98660.34;;;14.18;60.79
27144;BME280;14672;50.250;8.312;2023-03-19T08:12:53;98664.00;;;14.19;60.75
27144;BME280;14672;50.250;8.312;2023-03-19T08:15:19;98663.94;;;14.28;60.21
27144;BME280;14672;50.250;8.312;2023-03-19T08:17:45;98662.75;;;14.34;60.06
27144;BME280;14672;50.250;8.312;2023-03-19T08:20:14;98669.31;;;14.35;60.37
27144;BME280;14672;50.250;8.312;2023-03-19T08:22:43;98666.38;;;14.44;59.75
27144;BME280;14672;50.250;8.312;2023-03-19T08:25:13;98668.91;;;14.42;59.45
27144;BME280;14672;50.250;8.312;2023-03-19T08:27:39;98662.53;;;14.47;59.52
27144;BME280;14672;50.250;8.312;2023-03-19T08:30:06;98659.97;;;14.49;59.68
27144;BME280;14672;50.250;8.312;2023-03-19T08:32:33;98665.78;;;14.54;59.25
27144;BME280;14672;50.250;8.312;2023-03-19T08:34:59;98660.25;;;14.51;59.41
27144;BME280;14672;50.250;8.312;2023-03-19T08:37:24;98667.47;;;14.61;59.59
27144;BME280;14672;50.250;8.312;2023-03-19T08:39:50;98665.19;;;14.65;59.82
27144;BME280;14672;50.250;8.312;2023-03-19T08:42:19;98666.31;;;14.68;59.43
27144;BME280;14672;50.250;8.312;2023-03-19T08:44:47;98669.75;;;14.72;59.74
27144;BME280;14672;50.250;8.312;2023-03-19T08:47:13;98671.94;;;14.77;59.26
27144;BME280;14672;50.250;8.312;2023-03-19T08:49:39;98669.94;;;14.83;59.13
27144;BME280;14672;50.250;8.312;2023-03-19T08:52:06;98678.34;;;14.86;59.65
27144;BME280;14672;50.250;8.312;2023-03-19T08:54:32;98677.94;;;14.93;59.46
27144;BME280;14672;50.250;8.312;2023-03-19T08:57:01;98674.38;;;14.98;58.99
27144;BME280;14672;50.250;8.312;2023-03-19T08:59:27;98675.66;;;14.97;59.20
27144;BME280;14672;50.250;8.312;2023-03-19T09:01:53;98683.06;;;15.04;59.05
27144;BME280;14672;50.250;8.312;2023-03-19T09:04:20;98689.25;;;15.17;59.00
27144;BME280;14672;50.250;8.312;2023-03-19T09:06:47;98689.16;;;15.26;58.85
27144;BME280;14672;50.250;8.312;2023-03-19T09:09:20;98686.78;;;15.25;58.92
27144;BME280;14672;50.250;8.312;2023-03-19T09:11:46;98686.09;;;15.30;58.24
27144;BME280;14672;50.250;8.312;2023-03-19T09:14:14;98685.69;;;15.37;58.16
27144;BME280;14672;50.250;8.312;2023-03-19T09:16:42;98690.22;;;15.43;58.38
27144;BME280;14672;50.250;8.312;2023-03-19T09:19:08;98695.16;;;15.43;58.10
27144;BME280;14672;50.250;8.312;2023-03-19T09:21:35;98692.59;;;15.45;57.52
27144;BME280;14672;50.250;8.312;2023-03-19T09:24:01;98691.22;;;15.55;57.64
27144;BME280;14672;50.250;8.312;2023-03-19T09:26:27;98688.34;;;15.55;57.96
27144;BME280;14672;50.250;8.312;2023-03-19T09:28:53;98697.44;;;15.54;57.86
27144;BME280;14672;50.250;8.312;2023-03-19T09:31:19;98696.84;;;15.64;57.19
27144;BME280;14672;50.250;8.312;2023-03-19T09:33:45;98703.63;;;15.67;57.45
27144;BME280;14672;50.250;8.312;2023-03-19T09:36:10;98700.88;;;15.72;57.19
27144;BME280;14672;50.250;8.312;2023-03-19T09:38:36;98704.09;;;15.80;56.82
27144;BME280;14672;50.250;8.312;2023-03-19T09:44:19;98708.88;;;15.88;56.96
27144;BME280;14672;50.250;8.312;2023-03-19T09:49:49;98714.44;;;15.92;56.75
27144;BME280;14672;50.250;8.312;2023-03-19T09:54:58;98706.91;;;15.94;55.80
27144;BME280;14672;50.250;8.312;2023-03-19T09:57:25;98707.34;;;16.08;55.77
27144;BME280;14672;50.250;8.312;2023-03-19T09:59:54;98696.97;;;16.10;55.73
27144;BME280;14672;50.250;8.312;2023-03-19T10:05:57;98706.50;;;16.42;55.49
27144;BME280;14672;50.250;8.312;2023-03-19T10:08:29;98707.38;;;16.28;55.53
27144;BME280;14672;50.250;8.312;2023-03-19T10:14:18;98703.75;;;16.33;55.35
27144;BME280;14672;50.250;8.312;2023-03-19T10:16:48;98697.66;;;16.45;54.61
27144;BME280;14672;50.250;8.312;2023-03-19T10:19:23;98698.75;;;16.48;54.68
27144;BME280;14672;50.250;8.312;2023-03-19T10:21:59;98700.75;;;16.22;54.41
27144;BME280;14672;50.250;8.312;2023-03-19T10:24:30;98700.63;;;16.31;54.17
27144;BME280;14672;50.250;8.312;2023-03-19T10:27:03;98703.53;;;16.36;54.66
27144;BME280;14672;50.250;8.312;2023-03-19T10:29:33;98692.88;;;16.37;54.08
27144;BME280;14672;50.250;8.312;2023-03-19T10:32:57;98697.31;;;16.38;54.87
27144;BME280;14672;50.250;8.312;2023-03-19T10:35:07;98695.59;;;16.46;54.03
27144;BME280;14672;50.250;8.312;2023-03-19T10:37:37;98691.25;;;16.56;53.88
27144;BME280;14672;50.250;8.312;2023-03-19T10:40:05;98703.31;;;16.60;53.77
27144;BME280;14672;50.250;8.312;2023-03-19T10:43:06;98698.47;;;16.66;54.19
27144;BME280;14672;50.250;8.312;2023-03-19T10:45:37;98700.28;;;16.64;54.24
27144;BME280;14672;50.250;8.312;2023-03-19T10:48:04;98706.91;;;16.75;54.20
27144;BME280;14672;50.250;8.312;2023-03-19T10:55:32;98706.78;;;16.64;54.28
27144;BME280;14672;50.250;8.312;2023-03-19T10:58:19;98700.88;;;16.53;55.09
27144;BME280;14672;50.250;8.312;2023-03-19T11:00:48;98705.22;;;16.63;54.43
27144;BME280;14672;50.250;8.312;2023-03-19T11:06:25;98709.84;;;16.61;54.55
27144;BME280;14672;50.250;8.312;2023-03-19T11:09:02;98709.16;;;16.66;55.07
27144;BME280;14672;50.250;8.312;2023-03-19T11:11:53;98721.34;;;16.61;55.36
27144;BME280;14672;50.250;8.312;2023-03-19T11:14:37;98721.25;;;16.55;55.52
27144;BME280;14672;50.250;8.312;2023-03-19T11:22:50;98725.28;;;16.63;55.70
27144;BME280;14672;50.250;8.312;2023-03-19T11:25:26;98721.84;;;16.59;55.54
27144;BME280;14672;50.250;8.312;2023-03-19T11:28:12;98723.22;;;16.64;55.40
27144;BME280;14672;50.250;8.312;2023-03-19T11:34:17;98723.63;;;16.57;56.05
27144;BME280;14672;50.250;8.312;2023-03-19T11:37:04;98723.13;;;16.58;56.85
27144;BME280;14672;50.250;8.312;2023-03-19T11:40:01;98720.59;;;16.45;57.86
27144;BME280;14672;50.250;8.312;2023-03-19T11:43:24;98722.28;;;16.32;59.43
27144;BME280;14672;50.250;8.312;2023-03-19T11:52:21;98725.34;;;16.08;59.01
27144;BME280;14672;50.250;8.312;2023-03-19T12:00:55;98717.09;;;16.16;58.62
27144;BME280;14672;50.250;8.312;2023-03-19T12:04:41;98716.88;;;16.19;58.55
27144;BME280;14672;50.250;8.312;2023-03-19T12:20:19;98734.59;;;16.38;57.66
27144;BME280;14672;50.250;8.312;2023-03-19T12:23:32;98729.72;;;16.24;56.59
27144;BME280;14672;50.250;8.312;2023-03-19T12:26:30;98726.69;;;16.33;56.60
27144;BME280;14672;50.250;8.312;2023-03-19T12:32:00;98727.13;;;16.26;56.89
27144;BME280;14672;50.250;8.312;2023-03-19T12:34:42;98737.38;;;16.32;56.75
27144;BME280;14672;50.250;8.312;2023-03-19T12:38:12;98730.09;;;16.31;55.64
27144;BME280;14672;50.250;8.312;2023-03-19T12:43:05;98723.81;;;16.13;57.07
27144;BME280;14672;50.250;8.312;2023-03-19T12:46:08;98724.41;;;16.17;57.33
27144;BME280;14672;50.250;8.312;2023-03-19T12:48:55;98727.78;;;16.15;58.26
27144;BME280;14672;50.250;8.312;2023-03-19T12:51:29;98724.34;;;16.11;58.42
27144;BME280;14672;50.250;8.312;2023-03-19T12:53:59;98723.41;;;16.20;58.24
27144;BME280;14672;50.250;8.312;2023-03-19T13:00:06;98726.19;;;16.14;58.45
27144;BME280;14672;50.250;8.312;2023-03-19T13:05:58;98729.84;;;16.15;57.84
27144;BME280;14672;50.250;8.312;2023-03-19T13:08:44;98724.13;;;16.15;58.97
27144;BME280;14672;50.250;8.312;2023-03-19T13:11:48;98725.34;;;16.08;59.73
27144;BME280;14672;50.250;8.312;2023-03-19T13:17:24;98727.00;;;16.15;60.18
27144;BME280;14672;50.250;8.312;2023-03-19T13:19:53;98720.56;;;16.20;60.04
27144;BME280;14672;50.250;8.312;2023-03-19T13:22:27;98721.84;;;16.19;60.22
27144;BME280;14672;50.250;8.312;2023-03-19T13:24:56;98724.56;;;16.08;60.71
27144;BME280;14672;50.250;8.312;2023-03-19T13:27:30;98725.34;;;16.08;60.72
27144;BME280;14672;50.250;8.312;2023-03-19T13:33:03;98718.94;;;15.98;59.38
27144;BME280;14672;50.250;8.312;2023-03-19T13:35:43;98717.56;;;15.94;60.29
27144;BME280;14672;50.250;8.312;2023-03-19T13:40:52;98716.88;;;16.19;60.64
27144;BME280;14672;50.250;8.312;2023-03-19T13:54:17;98711.53;;;16.67;59.95
27144;BME280;14672;50.250;8.312;2023-03-19T13:59:34;98706.47;;;16.82;58.66
27144;BME280;14672;50.250;8.312;2023-03-19T14:04:51;98706.75;;;17.42;58.45
27144;BME280;14672;50.250;8.312;2023-03-19T14:07:26;98701.72;;;17.62;58.41
27144;BME280;14672;50.250;8.312;2023-03-19T14:12:37;98701.84;;;17.79;55.37
27144;BME280;14672;50.250;8.312;2023-03-19T14:17:56;98686.84;;;18.54;54.95
27144;BME280;14672;50.250;8.312;2023-03-19T14:21:13;98687.91;;;18.62;53.24
27144;BME280;14672;50.250;8.312;2023-03-19T14:23:26;98677.53;;;19.04;53.72
27144;BME280;14672;50.250;8.312;2023-03-19T14:26:18;98677.53;;;19.15;53.62
27144;BME280;14672;50.250;8.312;2023-03-19T14:31:53;98670.72;;;19.12;49.88
27144;BME280;14672;50.250;8.312;2023-03-19T14:34:31;98668.13;;;19.64;50.45
27144;BME280;14672;50.250;8.312;2023-03-19T14:37:23;98661.56;;;19.81;50.55
27144;BME280;14672;50.250;8.312;2023-03-19T14:40:13;98670.75;;;19.51;49.71
27144;BME280;14672;50.250;8.312;2023-03-19T14:53:21;98662.38;;;19.48;48.89
27144;BME280;14672;50.250;8.312;2023-03-19T14:55:51;98660.25;;;19.37;49.24
27144;BME280;14672;50.250;8.312;2023-03-19T14:58:21;98656.06;;;18.94;48.84
27144;BME280;14672;50.250;8.312;2023-03-19T15:00:53;98656.06;;;19.05;49.11
27144;BME280;14672;50.250;8.312;2023-03-19T15:03:32;98670.72;;;18.90;49.79
27144;BME280;14672;50.250;8.312;2023-03-19T15:06:00;98672.88;;;18.36;50.43
27144;BME280;14672;50.250;8.312;2023-03-19T15:08:30;98668.53;;;18.57;50.63
27144;BME280;14672;50.250;8.312;2023-03-19T15:14:22;98657.59;;;18.72;49.91
27144;BME280;14672;50.250;8.312;2023-03-19T15:17:08;98662.44;;;18.39;50.71